Current Weather

Prince Abdulmajeed Bin Abdula

Prince Abdulmajeed Bin Abdula, Saudi Arabia (OEAO)

Report from: Monday, July 22, 2024 11:00 AM UTC
Current time: Monday, July 22, 2024 11:34 AM UTC

Nearby weather – Weather history – Daily summaries
Weather forecast

Temperature40.0°C (104.0°F)
Heat index37.4°C (99.3°F)
Dew point5.0°C (41.0°F)
Winds 2 kts (1 m/s, 2.3 mph) South (170°)
Clouds Sky clear
Altimeter29.77 in.Hg (1008 mB)
Relative humidity12 %
Density altitude3,115 ft. (949 m)
Remarks Ceiling and visibility OK
No significant changes expected in the next two hours
Flight conditions Visual Meteorological Conditions
Raw dataOEAO 221100Z 17002KT CAVOK 40/05 Q1008 NOSIG
An error has occurred. This application may no longer respond until reloaded. Reload 🗙